sensor_id;sensor_type;location;lat;lon;timestamp;temperature;humidity
25188;DHT22;13141;50.414;8.050;2022-07-23T00:00:11;23.40;99.90
25188;DHT22;13141;50.414;8.050;2022-07-23T00:02:37;23.30;99.90
25188;DHT22;13141;50.414;8.050;2022-07-23T00:05:03;23.30;99.90
25188;DHT22;13141;50.414;8.050;2022-07-23T00:07:28;23.30;99.90
25188;DHT22;13141;50.414;8.050;2022-07-23T00:09:54;23.30;99.90
25188;DHT22;13141;50.414;8.050;2022-07-23T00:12:20;23.30;99.90
25188;DHT22;13141;50.414;8.050;2022-07-23T00:14:46;23.10;99.90
25188;DHT22;13141;50.414;8.050;2022-07-23T00:17:11;23.10;99.90
25188;DHT22;13141;50.414;8.050;2022-07-23T00:19:37;23.10;99.90
25188;DHT22;13141;50.414;8.050;2022-07-23T00:22:03;23.20;99.90
25188;DHT22;13141;50.414;8.050;2022-07-23T00:24:28;23.00;99.90
25188;DHT22;13141;50.414;8.050;2022-07-23T00:26:54;22.80;99.90
25188;DHT22;13141;50.414;8.050;2022-07-23T00:29:19;22.80;99.90
25188;DHT22;13141;50.414;8.050;2022-07-23T00:31:45;22.80;99.90
25188;DHT22;13141;50.414;8.050;2022-07-23T00:34:10;22.90;99.90
25188;DHT22;13141;50.414;8.050;2022-07-23T00:36:36;22.90;99.90
25188;DHT22;13141;50.414;8.050;2022-07-23T00:39:02;22.80;99.90
25188;DHT22;13141;50.414;8.050;2022-07-23T00:41:27;22.80;99.90
25188;DHT22;13141;50.414;8.050;2022-07-23T00:43:53;22.70;99.90
25188;DHT22;13141;50.414;8.050;2022-07-23T00:46:20;22.50;99.90
25188;DHT22;13141;50.414;8.050;2022-07-23T00:48:45;22.30;99.90
25188;DHT22;13141;50.414;8.050;2022-07-23T00:51:11;22.30;99.90
25188;DHT22;13141;50.414;8.050;2022-07-23T00:53:36;22.30;99.90
25188;DHT22;13141;50.414;8.050;2022-07-23T00:56:02;22.10;99.90
25188;DHT22;13141;50.414;8.050;2022-07-23T00:58:28;22.10;99.90
25188;DHT22;13141;50.414;8.050;2022-07-23T01:00:54;21.90;99.90
25188;DHT22;13141;50.414;8.050;2022-07-23T01:03:19;21.80;99.90
25188;DHT22;13141;50.414;8.050;2022-07-23T01:05:45;21.60;99.90
25188;DHT22;13141;50.414;8.050;2022-07-23T01:08:11;21.60;99.90
25188;DHT22;13141;50.414;8.050;2022-07-23T01:10:37;21.70;99.90
25188;DHT22;13141;50.414;8.050;2022-07-23T01:13:05;21.80;99.90
25188;DHT22;13141;50.414;8.050;2022-07-23T01:15:32;21.90;99.90
25188;DHT22;13141;50.414;8.050;2022-07-23T01:17:58;21.90;99.90
25188;DHT22;13141;50.414;8.050;2022-07-23T01:20:23;21.80;99.90
25188;DHT22;13141;50.414;8.050;2022-07-23T01:22:50;21.90;99.90
25188;DHT22;13141;50.414;8.050;2022-07-23T01:25:16;21.90;99.90
25188;DHT22;13141;50.414;8.050;2022-07-23T01:27:41;21.90;99.90
25188;DHT22;13141;50.414;8.050;2022-07-23T01:30:07;21.90;99.90
25188;DHT22;13141;50.414;8.050;2022-07-23T01:32:33;21.70;99.90
25188;DHT22;13141;50.414;8.050;2022-07-23T01:34:59;21.60;99.90
25188;DHT22;13141;50.414;8.050;2022-07-23T01:37:24;21.50;99.90
25188;DHT22;13141;50.414;8.050;2022-07-23T01:39:50;21.60;99.90
25188;DHT22;13141;50.414;8.050;2022-07-23T01:42:15;21.50;99.90
25188;DHT22;13141;50.414;8.050;2022-07-23T01:44:41;21.60;99.90
25188;DHT22;13141;50.414;8.050;2022-07-23T01:47:06;21.60;99.90
25188;DHT22;13141;50.414;8.050;2022-07-23T01:49:32;21.60;99.90
25188;DHT22;13141;50.414;8.050;2022-07-23T01:51:57;21.70;99.90
25188;DHT22;13141;50.414;8.050;2022-07-23T01:54:31;21.70;99.90
25188;DHT22;13141;50.414;8.050;2022-07-23T01:56:58;21.70;99.90
25188;DHT22;13141;50.414;8.050;2022-07-23T01:59:24;21.60;99.90
25188;DHT22;13141;50.414;8.050;2022-07-23T02:01:50;21.60;99.90
25188;DHT22;13141;50.414;8.050;2022-07-23T02:04:20;21.60;99.90
25188;DHT22;13141;50.414;8.050;2022-07-23T02:06:46;21.60;99.90
25188;DHT22;13141;50.414;8.050;2022-07-23T02:09:12;21.60;99.90
25188;DHT22;13141;50.414;8.050;2022-07-23T02:11:37;21.60;99.90
25188;DHT22;13141;50.414;8.050;2022-07-23T02:14:03;21.50;99.90
25188;DHT22;13141;50.414;8.050;2022-07-23T02:16:29;21.40;99.90
25188;DHT22;13141;50.414;8.050;2022-07-23T02:18:54;21.50;99.90
25188;DHT22;13141;50.414;8.050;2022-07-23T02:21:20;21.50;99.90
25188;DHT22;13141;50.414;8.050;2022-07-23T02:23:46;21.50;99.90
25188;DHT22;13141;50.414;8.050;2022-07-23T02:26:11;21.50;99.90
25188;DHT22;13141;50.414;8.050;2022-07-23T02:28:37;21.50;99.90
25188;DHT22;13141;50.414;8.050;2022-07-23T02:31:03;21.40;99.90
25188;DHT22;13141;50.414;8.050;2022-07-23T02:33:29;21.40;99.90
25188;DHT22;13141;50.414;8.050;2022-07-23T02:35:54;21.40;99.90
25188;DHT22;13141;50.414;8.050;2022-07-23T02:38:20;21.30;99.90
25188;DHT22;13141;50.414;8.050;2022-07-23T02:40:45;21.30;99.90
25188;DHT22;13141;50.414;8.050;2022-07-23T02:43:11;21.30;99.90
25188;DHT22;13141;50.414;8.050;2022-07-23T02:45:36;21.20;99.90
25188;DHT22;13141;50.414;8.050;2022-07-23T02:48:02;21.20;99.90
25188;DHT22;13141;50.414;8.050;2022-07-23T02:50:28;21.20;99.90
25188;DHT22;13141;50.414;8.050;2022-07-23T02:52:53;21.00;99.90
25188;DHT22;13141;50.414;8.050;2022-07-23T02:55:19;20.80;99.90
25188;DHT22;13141;50.414;8.050;2022-07-23T02:57:45;20.80;99.90
25188;DHT22;13141;50.414;8.050;2022-07-23T03:00:10;20.80;99.90
25188;DHT22;13141;50.414;8.050;2022-07-23T03:02:36;20.80;99.90
25188;DHT22;13141;50.414;8.050;2022-07-23T03:05:02;20.80;99.90
25188;DHT22;13141;50.414;8.050;2022-07-23T03:07:27;20.80;99.90
25188;DHT22;13141;50.414;8.050;2022-07-23T03:09:53;20.80;99.90
25188;DHT22;13141;50.414;8.050;2022-07-23T03:12:19;20.70;99.90
25188;DHT22;13141;50.414;8.050;2022-07-23T03:14:44;20.50;99.90
25188;DHT22;13141;50.414;8.050;2022-07-23T03:17:10;20.50;99.90
25188;DHT22;13141;50.414;8.050;2022-07-23T03:19:35;20.60;99.90
25188;DHT22;13141;50.414;8.050;2022-07-23T03:22:02;20.70;99.90
25188;DHT22;13141;50.414;8.050;2022-07-23T03:24:28;20.80;99.90
25188;DHT22;13141;50.414;8.050;2022-07-23T03:27:14;20.80;99.90
25188;DHT22;13141;50.414;8.050;2022-07-23T03:29:40;20.80;99.90
25188;DHT22;13141;50.414;8.050;2022-07-23T03:32:06;20.80;99.90
25188;DHT22;13141;50.414;8.050;2022-07-23T03:34:31;20.80;99.90
25188;DHT22;13141;50.414;8.050;2022-07-23T03:36:57;20.80;99.90
25188;DHT22;13141;50.414;8.050;2022-07-23T03:39:22;21.00;99.90
25188;DHT22;13141;50.414;8.050;2022-07-23T03:41:48;20.70;99.90
25188;DHT22;13141;50.414;8.050;2022-07-23T03:44:14;20.70;99.90
25188;DHT22;13141;50.414;8.050;2022-07-23T03:46:39;20.70;99.90
25188;DHT22;13141;50.414;8.050;2022-07-23T03:49:05;20.70;99.90
25188;DHT22;13141;50.414;8.050;2022-07-23T03:51:30;20.70;99.90
25188;DHT22;13141;50.414;8.050;2022-07-23T03:53:56;20.70;99.90
25188;DHT22;13141;50.414;8.050;2022-07-23T03:56:21;20.70;99.90
25188;DHT22;13141;50.414;8.050;2022-07-23T03:58:47;20.70;99.90
25188;DHT22;13141;50.414;8.050;2022-07-23T04:01:13;20.80;99.90
25188;DHT22;13141;50.414;8.050;2022-07-23T04:03:38;20.80;99.90
25188;DHT22;13141;50.414;8.050;2022-07-23T04:06:05;20.80;99.90
25188;DHT22;13141;50.414;8.050;2022-07-23T04:08:30;20.80;99.90
25188;DHT22;13141;50.414;8.050;2022-07-23T04:10:56;20.80;99.90
25188;DHT22;13141;50.414;8.050;2022-07-23T04:13:21;20.90;99.90
25188;DHT22;13141;50.414;8.050;2022-07-23T04:15:47;20.70;99.90
25188;DHT22;13141;50.414;8.050;2022-07-23T04:18:13;20.60;99.90
25188;DHT22;13141;50.414;8.050;2022-07-23T04:20:39;20.60;99.90
25188;DHT22;13141;50.414;8.050;2022-07-23T04:23:04;20.60;99.90
25188;DHT22;13141;50.414;8.050;2022-07-23T04:25:30;20.60;99.90
25188;DHT22;13141;50.414;8.050;2022-07-23T04:27:55;20.60;99.90
25188;DHT22;13141;50.414;8.050;2022-07-23T04:30:21;20.70;99.90
25188;DHT22;13141;50.414;8.050;2022-07-23T04:32:47;20.60;99.90
25188;DHT22;13141;50.414;8.050;2022-07-23T04:35:12;20.80;99.90
25188;DHT22;13141;50.414;8.050;2022-07-23T04:37:38;20.60;99.90
25188;DHT22;13141;50.414;8.050;2022-07-23T04:40:04;20.50;99.90
25188;DHT22;13141;50.414;8.050;2022-07-23T04:42:30;20.30;99.90
25188;DHT22;13141;50.414;8.050;2022-07-23T04:44:55;20.20;99.90
25188;DHT22;13141;50.414;8.050;2022-07-23T04:47:21;20.30;99.90
25188;DHT22;13141;50.414;8.050;2022-07-23T04:49:46;20.30;99.90
25188;DHT22;13141;50.414;8.050;2022-07-23T04:52:12;20.40;99.90
25188;DHT22;13141;50.414;8.050;2022-07-23T04:54:37;20.40;99.90
25188;DHT22;13141;50.414;8.050;2022-07-23T04:57:03;20.40;99.90
25188;DHT22;13141;50.414;8.050;2022-07-23T04:59:28;20.40;99.90
25188;DHT22;13141;50.414;8.050;2022-07-23T05:01:54;20.40;99.90
25188;DHT22;13141;50.414;8.050;2022-07-23T05:04:19;20.60;99.90
25188;DHT22;13141;50.414;8.050;2022-07-23T05:06:45;20.50;99.90
25188;DHT22;13141;50.414;8.050;2022-07-23T05:09:10;20.60;99.90
25188;DHT22;13141;50.414;8.050;2022-07-23T05:11:36;20.60;99.90
25188;DHT22;13141;50.414;8.050;2022-07-23T05:14:02;20.60;99.90
25188;DHT22;13141;50.414;8.050;2022-07-23T05:16:28;20.70;99.90
25188;DHT22;13141;50.414;8.050;2022-07-23T05:18:53;20.60;99.90
25188;DHT22;13141;50.414;8.050;2022-07-23T05:21:19;20.50;99.90
25188;DHT22;13141;50.414;8.050;2022-07-23T05:23:45;20.60;99.90
25188;DHT22;13141;50.414;8.050;2022-07-23T05:26:11;20.60;99.90
25188;DHT22;13141;50.414;8.050;2022-07-23T05:28:36;20.70;99.90
25188;DHT22;13141;50.414;8.050;2022-07-23T05:31:02;20.70;99.90
25188;DHT22;13141;50.414;8.050;2022-07-23T05:33:29;20.70;99.90
25188;DHT22;13141;50.414;8.050;2022-07-23T05:36:00;20.70;99.90
25188;DHT22;13141;50.414;8.050;2022-07-23T05:38:27;20.70;99.90
25188;DHT22;13141;50.414;8.050;2022-07-23T05:40:52;20.70;99.90
25188;DHT22;13141;50.414;8.050;2022-07-23T05:43:18;20.70;99.90
25188;DHT22;13141;50.414;8.050;2022-07-23T05:45:43;20.80;99.90
25188;DHT22;13141;50.414;8.050;2022-07-23T05:48:09;20.80;99.90
25188;DHT22;13141;50.414;8.050;2022-07-23T05:50:35;20.90;99.90
25188;DHT22;13141;50.414;8.050;2022-07-23T05:53:00;21.00;99.90
25188;DHT22;13141;50.414;8.050;2022-07-23T05:55:26;21.00;99.90
25188;DHT22;13141;50.414;8.050;2022-07-23T05:57:55;21.00;99.90
25188;DHT22;13141;50.414;8.050;2022-07-23T06:00:21;21.10;99.90
25188;DHT22;13141;50.414;8.050;2022-07-23T06:02:47;21.10;99.90
25188;DHT22;13141;50.414;8.050;2022-07-23T06:05:13;21.10;99.90
25188;DHT22;13141;50.414;8.050;2022-07-23T06:07:41;21.10;99.90
25188;DHT22;13141;50.414;8.050;2022-07-23T06:10:08;21.10;99.90
25188;DHT22;13141;50.414;8.050;2022-07-23T06:12:34;21.20;99.90
25188;DHT22;13141;50.414;8.050;2022-07-23T06:15:00;21.30;99.90
25188;DHT22;13141;50.414;8.050;2022-07-23T06:17:25;21.40;99.90
25188;DHT22;13141;50.414;8.050;2022-07-23T06:19:51;21.50;99.90
25188;DHT22;13141;50.414;8.050;2022-07-23T06:22:17;21.60;99.90
25188;DHT22;13141;50.414;8.050;2022-07-23T06:24:42;21.60;99.90
25188;DHT22;13141;50.414;8.050;2022-07-23T06:27:08;21.50;99.90
25188;DHT22;13141;50.414;8.050;2022-07-23T06:32:09;21.40;99.90
25188;DHT22;13141;50.414;8.050;2022-07-23T06:34:35;21.30;99.90
25188;DHT22;13141;50.414;8.050;2022-07-23T06:37:01;21.30;99.90
25188;DHT22;13141;50.414;8.050;2022-07-23T06:39:27;21.40;99.90
25188;DHT22;13141;50.414;8.050;2022-07-23T06:41:52;21.50;99.90
25188;DHT22;13141;50.414;8.050;2022-07-23T06:44:18;21.60;99.90
25188;DHT22;13141;50.414;8.050;2022-07-23T06:46:44;21.80;99.90
25188;DHT22;13141;50.414;8.050;2022-07-23T06:49:09;21.80;99.90
25188;DHT22;13141;50.414;8.050;2022-07-23T06:51:35;21.90;99.90
25188;DHT22;13141;50.414;8.050;2022-07-23T06:54:01;21.90;99.90
25188;DHT22;13141;50.414;8.050;2022-07-23T06:56:27;22.30;99.90
25188;DHT22;13141;50.414;8.050;2022-07-23T06:58:52;22.00;99.90
25188;DHT22;13141;50.414;8.050;2022-07-23T07:01:18;22.20;99.90
25188;DHT22;13141;50.414;8.050;2022-07-23T07:03:44;22.10;99.90
25188;DHT22;13141;50.414;8.050;2022-07-23T07:06:09;22.20;99.90
25188;DHT22;13141;50.414;8.050;2022-07-23T07:08:35;22.20;99.90
25188;DHT22;13141;50.414;8.050;2022-07-23T07:11:01;22.40;99.90
25188;DHT22;13141;50.414;8.050;2022-07-23T07:13:26;22.50;99.90
25188;DHT22;13141;50.414;8.050;2022-07-23T07:15:52;22.60;99.90
25188;DHT22;13141;50.414;8.050;2022-07-23T07:18:17;22.70;99.90
25188;DHT22;13141;50.414;8.050;2022-07-23T07:20:43;22.90;99.90
25188;DHT22;13141;50.414;8.050;2022-07-23T07:23:08;22.80;99.90
25188;DHT22;13141;50.414;8.050;2022-07-23T07:25:34;22.90;99.90
25188;DHT22;13141;50.414;8.050;2022-07-23T07:28:00;22.90;99.90
25188;DHT22;13141;50.414;8.050;2022-07-23T07:30:25;23.00;99.90
25188;DHT22;13141;50.414;8.050;2022-07-23T07:32:51;23.00;99.90
25188;DHT22;13141;50.414;8.050;2022-07-23T07:35:17;23.20;99.90
25188;DHT22;13141;50.414;8.050;2022-07-23T07:37:42;23.50;99.90
25188;DHT22;13141;50.414;8.050;2022-07-23T07:40:08;23.70;99.90
25188;DHT22;13141;50.414;8.050;2022-07-23T07:42:34;23.80;99.90
25188;DHT22;13141;50.414;8.050;2022-07-23T07:44:59;24.00;99.90
25188;DHT22;13141;50.414;8.050;2022-07-23T07:47:25;24.00;99.90
25188;DHT22;13141;50.414;8.050;2022-07-23T07:49:50;23.90;99.90
25188;DHT22;13141;50.414;8.050;2022-07-23T07:52:16;24.00;99.90
25188;DHT22;13141;50.414;8.050;2022-07-23T07:54:41;24.10;99.90
25188;DHT22;13141;50.414;8.050;2022-07-23T07:57:08;24.10;99.90
25188;DHT22;13141;50.414;8.050;2022-07-23T07:59:33;24.10;99.90
25188;DHT22;13141;50.414;8.050;2022-07-23T08:01:59;24.20;99.90
25188;DHT22;13141;50.414;8.050;2022-07-23T08:04:25;24.40;99.90
25188;DHT22;13141;50.414;8.050;2022-07-23T08:06:50;24.60;99.90
25188;DHT22;13141;50.414;8.050;2022-07-23T08:09:16;24.80;99.90
25188;DHT22;13141;50.414;8.050;2022-07-23T08:11:41;25.10;99.90
25188;DHT22;13141;50.414;8.050;2022-07-23T08:14:07;25.40;99.90
25188;DHT22;13141;50.414;8.050;2022-07-23T08:16:32;25.60;99.90
25188;DHT22;13141;50.414;8.050;2022-07-23T08:18:58;25.70;99.00
25188;DHT22;13141;50.414;8.050;2022-07-23T08:21:24;25.80;99.40
25188;DHT22;13141;50.414;8.050;2022-07-23T08:23:49;25.90;99.30
25188;DHT22;13141;50.414;8.050;2022-07-23T08:26:15;26.10;98.70
25188;DHT22;13141;50.414;8.050;2022-07-23T08:28:40;26.30;99.10
25188;DHT22;13141;50.414;8.050;2022-07-23T08:31:06;26.50;99.60
25188;DHT22;13141;50.414;8.050;2022-07-23T08:33:32;26.60;98.50
25188;DHT22;13141;50.414;8.050;2022-07-23T08:35:58;26.80;98.60
25188;DHT22;13141;50.414;8.050;2022-07-23T08:38:23;26.90;98.10
25188;DHT22;13141;50.414;8.050;2022-07-23T08:40:53;27.00;98.10
25188;DHT22;13141;50.414;8.050;2022-07-23T08:43:23;27.00;97.90
25188;DHT22;13141;50.414;8.050;2022-07-23T08:45:52;27.00;97.10
25188;DHT22;13141;50.414;8.050;2022-07-23T08:48:21;26.90;96.10
25188;DHT22;13141;50.414;8.050;2022-07-23T08:50:49;26.90;97.00
25188;DHT22;13141;50.414;8.050;2022-07-23T08:53:17;27.10;97.90
25188;DHT22;13141;50.414;8.050;2022-07-23T08:55:47;27.50;97.90
25188;DHT22;13141;50.414;8.050;2022-07-23T08:58:14;27.90;97.20
25188;DHT22;13141;50.414;8.050;2022-07-23T09:00:41;28.30;97.20
25188;DHT22;13141;50.414;8.050;2022-07-23T09:03:07;28.50;95.60
25188;DHT22;13141;50.414;8.050;2022-07-23T09:05:33;28.40;94.80
25188;DHT22;13141;50.414;8.050;2022-07-23T09:08:05;28.40;96.10
25188;DHT22;13141;50.414;8.050;2022-07-23T09:10:49;28.70;96.60
25188;DHT22;13141;50.414;8.050;2022-07-23T09:15:58;28.70;96.00
25188;DHT22;13141;50.414;8.050;2022-07-23T09:18:31;28.40;94.90
25188;DHT22;13141;50.414;8.050;2022-07-23T09:21:11;28.00;94.00
25188;DHT22;13141;50.414;8.050;2022-07-23T09:23:42;27.80;94.90
25188;DHT22;13141;50.414;8.050;2022-07-23T09:26:25;27.70;95.50
25188;DHT22;13141;50.414;8.050;2022-07-23T09:29:07;27.70;95.40
25188;DHT22;13141;50.414;8.050;2022-07-23T09:31:48;27.90;95.40
25188;DHT22;13141;50.414;8.050;2022-07-23T09:34:26;28.10;94.90
25188;DHT22;13141;50.414;8.050;2022-07-23T09:36:55;28.20;95.00
25188;DHT22;13141;50.414;8.050;2022-07-23T09:39:32;28.50;94.80
25188;DHT22;13141;50.414;8.050;2022-07-23T09:42:16;28.90;94.50
25188;DHT22;13141;50.414;8.050;2022-07-23T09:44:44;29.10;93.40
25188;DHT22;13141;50.414;8.050;2022-07-23T09:47:09;29.30;93.00
25188;DHT22;13141;50.414;8.050;2022-07-23T09:49:35;29.50;93.20
25188;DHT22;13141;50.414;8.050;2022-07-23T09:52:01;29.90;93.80
25188;DHT22;13141;50.414;8.050;2022-07-23T09:54:36;30.10;92.50
25188;DHT22;13141;50.414;8.050;2022-07-23T09:57:10;29.40;91.60
25188;DHT22;13141;50.414;8.050;2022-07-23T09:59:40;28.40;92.70
25188;DHT22;13141;50.414;8.050;2022-07-23T10:02:08;28.30;92.50
25188;DHT22;13141;50.414;8.050;2022-07-23T10:04:34;28.50;93.20
25188;DHT22;13141;50.414;8.050;2022-07-23T10:07:03;29.20;93.80
25188;DHT22;13141;50.414;8.050;2022-07-23T10:09:31;29.50;92.90
25188;DHT22;13141;50.414;8.050;2022-07-23T10:11:59;29.90;93.30
25188;DHT22;13141;50.414;8.050;2022-07-23T10:14:48;29.70;92.50
25188;DHT22;13141;50.414;8.050;2022-07-23T10:17:14;29.80;93.20
25188;DHT22;13141;50.414;8.050;2022-07-23T10:19:40;30.30;92.80
25188;DHT22;13141;50.414;8.050;2022-07-23T10:27:58;31.20;90.70
25188;DHT22;13141;50.414;8.050;2022-07-23T10:35:56;32.30;90.40
25188;DHT22;13141;50.414;8.050;2022-07-23T10:38:31;32.50;87.10
25188;DHT22;13141;50.414;8.050;2022-07-23T10:40:58;32.70;90.00
25188;DHT22;13141;50.414;8.050;2022-07-23T10:43:24;32.70;88.50
25188;DHT22;13141;50.414;8.050;2022-07-23T10:45:50;32.20;87.00
25188;DHT22;13141;50.414;8.050;2022-07-23T10:48:25;31.90;87.00
25188;DHT22;13141;50.414;8.050;2022-07-23T10:51:12;32.10;89.50
25188;DHT22;13141;50.414;8.050;2022-07-23T10:53:58;32.50;84.50
25188;DHT22;13141;50.414;8.050;2022-07-23T10:59:21;33.20;82.90
25188;DHT22;13141;50.414;8.050;2022-07-23T11:01:47;32.30;77.50
25188;DHT22;13141;50.414;8.050;2022-07-23T11:04:13;31.80;83.20
25188;DHT22;13141;50.414;8.050;2022-07-23T11:09:39;31.30;83.50
25188;DHT22;13141;50.414;8.050;2022-07-23T11:15:11;32.10;81.70
25188;DHT22;13141;50.414;8.050;2022-07-23T11:22:35;33.70;83.80
25188;DHT22;13141;50.414;8.050;2022-07-23T11:25:01;33.80;77.90
25188;DHT22;13141;50.414;8.050;2022-07-23T11:27:46;33.90;77.70
25188;DHT22;13141;50.414;8.050;2022-07-23T11:33:38;34.20;70.30
25188;DHT22;13141;50.414;8.050;2022-07-23T11:35:50;34.00;69.70
25188;DHT22;13141;50.414;8.050;2022-07-23T11:38:24;33.70;69.60
25188;DHT22;13141;50.414;8.050;2022-07-23T11:40:52;33.90;70.20
25188;DHT22;13141;50.414;8.050;2022-07-23T11:43:19;34.40;72.00
25188;DHT22;13141;50.414;8.050;2022-07-23T11:45:51;34.90;72.40
25188;DHT22;13141;50.414;8.050;2022-07-23T11:48:18;35.40;70.10
25188;DHT22;13141;50.414;8.050;2022-07-23T11:50:44;35.60;70.70
25188;DHT22;13141;50.414;8.050;2022-07-23T11:53:09;35.80;68.50
25188;DHT22;13141;50.414;8.050;2022-07-23T11:55:35;35.90;65.40
25188;DHT22;13141;50.414;8.050;2022-07-23T11:58:01;35.50;61.00
25188;DHT22;13141;50.414;8.050;2022-07-23T12:00:29;35.30;64.60
25188;DHT22;13141;50.414;8.050;2022-07-23T12:03:00;35.30;63.50
25188;DHT22;13141;50.414;8.050;2022-07-23T12:05:29;35.50;63.20
25188;DHT22;13141;50.414;8.050;2022-07-23T12:07:56;35.80;63.70
25188;DHT22;13141;50.414;8.050;2022-07-23T12:12:51;36.20;63.80
25188;DHT22;13141;50.414;8.050;2022-07-23T12:15:22;36.20;64.10
25188;DHT22;13141;50.414;8.050;2022-07-23T12:17:49;36.30;61.00
25188;DHT22;13141;50.414;8.050;2022-07-23T12:20:21;36.50;65.30
25188;DHT22;13141;50.414;8.050;2022-07-23T12:22:49;36.40;59.00
25188;DHT22;13141;50.414;8.050;2022-07-23T12:25:17;36.10;58.20
25188;DHT22;13141;50.414;8.050;2022-07-23T12:27:44;35.80;57.00
25188;DHT22;13141;50.414;8.050;2022-07-23T12:32:46;34.40;56.20
25188;DHT22;13141;50.414;8.050;2022-07-23T12:35:11;34.60;61.30
25188;DHT22;13141;50.414;8.050;2022-07-23T12:37:40;35.20;60.00
25188;DHT22;13141;50.414;8.050;2022-07-23T12:40:30;35.80;61.50
25188;DHT22;13141;50.414;8.050;2022-07-23T12:42:59;36.30;56.80
25188;DHT22;13141;50.414;8.050;2022-07-23T12:45:26;36.50;58.60
25188;DHT22;13141;50.414;8.050;2022-07-23T12:48:05;36.80;58.90
25188;DHT22;13141;50.414;8.050;2022-07-23T12:50:49;37.10;55.30
25188;DHT22;13141;50.414;8.050;2022-07-23T12:53:17;37.10;55.50
25188;DHT22;13141;50.414;8.050;2022-07-23T12:55:44;37.60;56.90
25188;DHT22;13141;50.414;8.050;2022-07-23T12:58:20;37.90;56.30
25188;DHT22;13141;50.414;8.050;2022-07-23T13:04:00;37.80;53.40
25188;DHT22;13141;50.414;8.050;2022-07-23T13:06:32;38.00;55.30
25188;DHT22;13141;50.414;8.050;2022-07-23T13:08:58;38.20;53.20
25188;DHT22;13141;50.414;8.050;2022-07-23T13:11:24;37.90;51.80
25188;DHT22;13141;50.414;8.050;2022-07-23T13:13:50;37.80;54.10
25188;DHT22;13141;50.414;8.050;2022-07-23T13:16:15;37.80;53.90
25188;DHT22;13141;50.414;8.050;2022-07-23T13:18:41;38.00;53.90
25188;DHT22;13141;50.414;8.050;2022-07-23T13:21:07;37.70;52.40
25188;DHT22;13141;50.414;8.050;2022-07-23T13:23:33;37.50;52.30
25188;DHT22;13141;50.414;8.050;2022-07-23T13:25:59;37.40;51.40
25188;DHT22;13141;50.414;8.050;2022-07-23T13:28:24;37.30;50.70
25188;DHT22;13141;50.414;8.050;2022-07-23T13:30:51;36.70;48.80
25188;DHT22;13141;50.414;8.050;2022-07-23T13:33:19;36.50;50.60
25188;DHT22;13141;50.414;8.050;2022-07-23T13:35:45;36.00;51.60
25188;DHT22;13141;50.414;8.050;2022-07-23T13:38:10;36.30;50.90
25188;DHT22;13141;50.414;8.050;2022-07-23T13:40:41;36.40;51.50
25188;DHT22;13141;50.414;8.050;2022-07-23T13:43:09;36.30;51.80
25188;DHT22;13141;50.414;8.050;2022-07-23T13:45:35;36.60;52.30
25188;DHT22;13141;50.414;8.050;2022-07-23T13:48:02;36.70;51.50
25188;DHT22;13141;50.414;8.050;2022-07-23T13:50:28;36.60;50.00
25188;DHT22;13141;50.414;8.050;2022-07-23T13:52:54;36.40;51.80
25188;DHT22;13141;50.414;8.050;2022-07-23T13:55:19;36.70;52.60
25188;DHT22;13141;50.414;8.050;2022-07-23T13:57:45;36.90;51.70
25188;DHT22;13141;50.414;8.050;2022-07-23T14:00:11;37.20;53.40
25188;DHT22;13141;50.414;8.050;2022-07-23T14:02:38;37.60;50.30
25188;DHT22;13141;50.414;8.050;2022-07-23T14:05:09;37.60;51.80
25188;DHT22;13141;50.414;8.050;2022-07-23T14:07:36;37.70;50.10
25188;DHT22;13141;50.414;8.050;2022-07-23T14:10:03;37.70;51.20
25188;DHT22;13141;50.414;8.050;2022-07-23T14:12:30;37.80;50.20
25188;DHT22;13141;50.414;8.050;2022-07-23T14:14:55;38.00;51.50
25188;DHT22;13141;50.414;8.050;2022-07-23T14:17:22;38.30;51.40
25188;DHT22;13141;50.414;8.050;2022-07-23T14:19:47;38.40;51.00
25188;DHT22;13141;50.414;8.050;2022-07-23T14:22:13;38.50;49.80
25188;DHT22;13141;50.414;8.050;2022-07-23T14:24:39;38.50;49.30
25188;DHT22;13141;50.414;8.050;2022-07-23T14:27:04;38.60;51.00
25188;DHT22;13141;50.414;8.050;2022-07-23T14:29:30;38.40;50.50
25188;DHT22;13141;50.414;8.050;2022-07-23T14:31:57;38.60;49.40
25188;DHT22;13141;50.414;8.050;2022-07-23T14:34:23;38.40;49.30
25188;DHT22;13141;50.414;8.050;2022-07-23T14:36:48;38.50;50.00
25188;DHT22;13141;50.414;8.050;2022-07-23T14:39:14;38.60;49.40
25188;DHT22;13141;50.414;8.050;2022-07-23T14:41:39;38.40;49.60
25188;DHT22;13141;50.414;8.050;2022-07-23T14:44:05;38.10;47.20
25188;DHT22;13141;50.414;8.050;2022-07-23T14:46:31;37.90;47.50
25188;DHT22;13141;50.414;8.050;2022-07-23T14:48:56;37.80;47.10
25188;DHT22;13141;50.414;8.050;2022-07-23T14:51:22;37.80;49.00
25188;DHT22;13141;50.414;8.050;2022-07-23T14:53:48;37.90;49.00
25188;DHT22;13141;50.414;8.050;2022-07-23T14:56:14;37.90;48.00
25188;DHT22;13141;50.414;8.050;2022-07-23T14:58:40;37.80;47.50
25188;DHT22;13141;50.414;8.050;2022-07-23T15:01:06;37.90;48.70
25188;DHT22;13141;50.414;8.050;2022-07-23T15:03:32;38.00;49.20
25188;DHT22;13141;50.414;8.050;2022-07-23T15:05:58;38.00;48.70
25188;DHT22;13141;50.414;8.050;2022-07-23T15:08:23;38.10;48.20
25188;DHT22;13141;50.414;8.050;2022-07-23T15:10:49;38.20;49.00
25188;DHT22;13141;50.414;8.050;2022-07-23T15:13:15;38.20;47.10
25188;DHT22;13141;50.414;8.050;2022-07-23T15:15:40;38.20;46.80
25188;DHT22;13141;50.414;8.050;2022-07-23T15:18:06;38.20;47.30
25188;DHT22;13141;50.414;8.050;2022-07-23T15:20:31;38.30;47.70
25188;DHT22;13141;50.414;8.050;2022-07-23T15:22:57;38.30;48.50
25188;DHT22;13141;50.414;8.050;2022-07-23T15:25:23;37.90;46.00
25188;DHT22;13141;50.414;8.050;2022-07-23T15:27:49;37.70;45.40
25188;DHT22;13141;50.414;8.050;2022-07-23T15:30:15;37.30;46.80
25188;DHT22;13141;50.414;8.050;2022-07-23T15:32:41;36.80;46.50
25188;DHT22;13141;50.414;8.050;2022-07-23T15:35:07;36.60;47.40
25188;DHT22;13141;50.414;8.050;2022-07-23T15:37:34;36.60;47.30
25188;DHT22;13141;50.414;8.050;2022-07-23T15:40:00;36.70;47.70
25188;DHT22;13141;50.414;8.050;2022-07-23T15:42:25;36.70;47.00
25188;DHT22;13141;50.414;8.050;2022-07-23T15:44:51;36.70;47.20
25188;DHT22;13141;50.414;8.050;2022-07-23T15:47:18;36.70;47.50
25188;DHT22;13141;50.414;8.050;2022-07-23T15:49:44;36.70;47.00
25188;DHT22;13141;50.414;8.050;2022-07-23T15:52:10;36.50;47.50
25188;DHT22;13141;50.414;8.050;2022-07-23T15:54:37;36.40;47.70
25188;DHT22;13141;50.414;8.050;2022-07-23T15:57:03;36.50;47.20
25188;DHT22;13141;50.414;8.050;2022-07-23T15:59:29;36.60;48.20
25188;DHT22;13141;50.414;8.050;2022-07-23T16:01:54;36.70;47.90
25188;DHT22;13141;50.414;8.050;2022-07-23T16:04:20;36.70;47.90
25188;DHT22;13141;50.414;8.050;2022-07-23T16:06:46;36.70;48.20
25188;DHT22;13141;50.414;8.050;2022-07-23T16:09:11;36.50;47.70